Time,TemperatureF,DewpointF,PressureIn,WindDirection,WindDirectionDegrees,WindSpeedMPH,WindSpeedGustMPH,Humidity,HourlyPrecipIn,Conditions,Clouds,dailyrainin,SoftwareType,DateUTC
2013-02-21 00:01:00,34.0,25.0,29.80,West,271,20.0,25.0,67,-99.99,,,-99.99,,2013-02-21 07:01:00,
2013-02-21 00:11:00,34.0,25.0,29.80,West,271,16.0,21.0,67,-99.99,,,-99.99,,2013-02-21 07:11:00,
2013-02-21 00:21:00,34.0,25.0,29.80,West,272,18.0,25.0,67,-99.99,,,-99.99,,2013-02-21 07:21:00,
2013-02-21 00:32:00,35.0,25.0,29.80,West,271,20.0,28.0,68,-99.99,,,-99.99,,2013-02-21 07:32:00,
2013-02-21 00:42:00,34.0,26.0,29.79,West,271,22.0,31.0,71,-99.99,,,-99.99,,2013-02-21 07:42:00,
2013-02-21 00:52:00,33.0,27.0,29.79,West,269,17.0,23.0,77,-99.99,,,-99.99,,2013-02-21 07:52:00,
2013-02-21 01:01:00,33.0,27.0,29.80,West,276,20.0,25.0,78,-99.99,,,-99.99,,2013-02-21 08:01:00,
2013-02-21 01:11:00,33.0,27.0,29.81,WNW,290,15.0,20.0,78,-99.99,,,-99.99,,2013-02-21 08:11:00,
2013-02-21 01:21:00,33.0,27.0,29.81,West,272,14.0,18.0,79,-99.99,,,-99.99,,2013-02-21 08:21:00,
2013-02-21 01:32:00,34.0,27.0,29.80,WNW,283,16.0,24.0,76,-99.99,,,-99.99,,2013-02-21 08:32:00,
2013-02-21 01:42:00,34.0,26.0,29.80,West,273,18.0,23.0,74,-99.99,,,-99.99,,2013-02-21 08:42:00,
2013-02-21 01:52:00,34.0,26.0,29.80,West,267,16.0,28.0,70,-99.99,,,-99.99,,2013-02-21 08:52:00,
2013-02-21 02:01:00,35.0,26.0,29.81,West,277,18.0,24.0,70,-99.99,,,-99.99,,2013-02-21 09:01:00,
2013-02-21 02:11:00,35.0,25.0,29.81,West,278,18.0,24.0,68,-99.99,,,-99.99,,2013-02-21 09:11:00,
2013-02-21 02:22:00,35.0,25.0,29.82,West,271,17.0,25.0,67,-99.99,,,-99.99,,2013-02-21 09:22:00,
2013-02-21 02:31:00,34.0,24.0,29.82,West,265,17.0,25.0,65,-99.99,,,-99.99,,2013-02-21 09:31:00,
2013-02-21 02:41:00,34.0,24.0,29.82,West,259,15.0,21.0,65,-99.99,,,-99.99,,2013-02-21 09:41:00,
2013-02-21 02:51:00,33.0,24.0,29.82,WSW,256,16.0,23.0,69,-99.99,,,-99.99,,2013-02-21 09:51:00,
2013-02-21 03:01:00,33.0,24.0,29.83,WSW,257,16.0,24.0,70,-99.99,,,-99.99,,2013-02-21 10:01:00,
2013-02-21 03:11:00,33.0,24.0,29.83,West,260,15.0,27.0,70,-99.99,,,-99.99,,2013-02-21 10:11:00,
2013-02-21 03:21:00,32.0,24.0,29.82,WSW,254,17.0,28.0,70,-99.99,,,-99.99,,2013-02-21 10:21:00,
2013-02-21 03:31:00,32.0,24.0,29.83,WSW,258,20.0,31.0,71,-99.99,,,-99.99,,2013-02-21 10:31:00,
2013-02-21 03:41:00,32.0,24.0,29.82,West,263,16.0,24.0,71,-99.99,,,-99.99,,2013-02-21 10:41:00,
2013-02-21 03:51:00,31.0,23.0,29.83,West,274,18.0,27.0,72,-99.99,,,-99.99,,2013-02-21 10:51:00,
2013-02-21 04:01:00,31.0,23.0,29.83,West,274,18.0,25.0,71,-99.99,,,-99.99,,2013-02-21 11:01:00,
2013-02-21 04:11:00,31.0,23.0,29.83,West,260,17.0,25.0,71,-99.99,,,-99.99,,2013-02-21 11:11:00,
2013-02-21 04:21:00,31.0,23.0,29.84,West,263,16.0,22.0,71,-99.99,,,-99.99,,2013-02-21 11:21:00,
2013-02-21 04:31:00,31.0,23.0,29.84,West,278,17.0,25.0,71,-99.99,,,-99.99,,2013-02-21 11:31:00,
2013-02-21 04:41:00,31.0,22.0,29.85,West,261,17.0,23.0,70,-99.99,,,-99.99,,2013-02-21 11:41:00,
2013-02-21 04:51:00,31.0,22.0,29.85,WSW,258,14.0,21.0,70,-99.99,,,-99.99,,2013-02-21 11:51:00,
2013-02-21 05:01:00,31.0,22.0,29.86,West,266,14.0,20.0,70,-99.99,,,-99.99,,2013-02-21 12:01:00,
2013-02-21 05:11:00,31.0,22.0,29.86,WSW,251,10.0,17.0,70,-99.99,,,-99.99,,2013-02-21 12:11:00,
2013-02-21 05:21:00,31.0,22.0,29.86,WSW,249,13.0,20.0,71,-99.99,,,-99.99,,2013-02-21 12:21:00,
2013-02-21 05:32:00,31.0,22.0,29.86,WSW,258,16.0,22.0,69,-99.99,,,-99.99,,2013-02-21 12:32:00,
2013-02-21 05:42:00,31.0,22.0,29.88,WNW,284,12.0,18.0,68,-99.99,,,-99.99,,2013-02-21 12:42:00,
2013-02-21 05:52:00,31.0,21.0,29.88,West,272,13.0,20.0,66,-99.99,,,-99.99,,2013-02-21 12:52:00,
2013-02-21 06:01:00,31.0,21.0,29.89,West,279,13.0,16.0,65,-99.99,,,-99.99,,2013-02-21 13:01:00,
2013-02-21 06:12:00,31.0,20.0,29.89,West,276,15.0,21.0,64,-99.99,,,-99.99,,2013-02-21 13:12:00,
2013-02-21 06:22:00,31.0,21.0,29.88,West,259,16.0,23.0,65,-99.99,,,-99.99,,2013-02-21 13:22:00,
2013-02-21 06:32:00,31.0,21.0,29.89,West,267,16.0,21.0,65,-99.99,,,-99.99,,2013-02-21 13:32:00,
2013-02-21 06:41:00,31.0,21.0,29.90,WSW,258,10.0,16.0,65,-99.99,,,-99.99,,2013-02-21 13:41:00,
2013-02-21 06:51:00,31.0,21.0,29.90,WSW,258,13.0,18.0,66,-99.99,,,-99.99,,2013-02-21 13:51:00,
2013-02-21 07:02:00,31.0,21.0,29.89,West,261,15.0,22.0,65,-99.99,,,-99.99,,2013-02-21 14:02:00,
2013-02-21 07:11:00,31.0,21.0,29.89,WSW,257,15.0,25.0,65,-99.99,,,-99.99,,2013-02-21 14:11:00,
2013-02-21 07:21:00,31.0,21.0,29.91,WSW,256,12.0,21.0,66,-99.99,,,-99.99,,2013-02-21 14:21:00,
2013-02-21 07:32:00,31.0,21.0,29.92,SSW,210,3.0,7.0,66,-99.99,,,-99.99,,2013-02-21 14:32:00,
2013-02-21 07:42:00,32.0,21.0,29.93,WSW,243,7.0,10.0,64,-99.99,,,-99.99,,2013-02-21 14:42:00,
2013-02-21 07:52:00,32.0,21.0,29.93,WSW,254,10.0,16.0,64,-99.99,,,-99.99,,2013-02-21 14:52:00,
2013-02-21 08:01:00,33.0,21.0,29.93,West,265,18.0,24.0,63,-99.99,,,-99.99,,2013-02-21 15:01:00,
2013-02-21 08:12:00,33.0,21.0,29.93,West,271,18.0,25.0,61,-99.99,,,-99.99,,2013-02-21 15:12:00,
2013-02-21 08:21:00,34.0,21.0,29.94,West,271,20.0,23.0,59,-99.99,,,-99.99,,2013-02-21 15:21:00,
2013-02-21 08:32:00,35.0,21.0,29.96,West,263,16.0,21.0,57,-99.99,,,-99.99,,2013-02-21 15:32:00,
2013-02-21 08:42:00,35.0,21.0,29.97,West,273,10.0,14.0,56,-99.99,,,-99.99,,2013-02-21 15:42:00,
2013-02-21 08:51:00,35.0,21.0,29.98,West,264,14.0,20.0,55,-99.99,,,-99.99,,2013-02-21 15:51:00,
2013-02-21 09:01:00,36.0,21.0,29.98,West,274,17.0,23.0,54,-99.99,,,-99.99,,2013-02-21 16:01:00,
2013-02-21 09:12:00,36.0,21.0,29.98,West,269,21.0,29.0,54,-99.99,,,-99.99,,2013-02-21 16:12:00,
2013-02-21 09:22:00,36.0,21.0,29.98,West,265,17.0,27.0,53,-99.99,,,-99.99,,2013-02-21 16:22:00,
2013-02-21 09:32:00,36.0,21.0,29.98,West,271,14.0,20.0,53,-99.99,,,-99.99,,2013-02-21 16:32:00,
2013-02-21 09:42:00,37.0,22.0,29.99,WNW,287,14.0,20.0,53,-99.99,,,-99.99,,2013-02-21 16:42:00,
2013-02-21 09:52:00,37.0,22.0,29.99,West,274,15.0,18.0,55,-99.99,,,-99.99,,2013-02-21 16:52:00,
2013-02-21 10:01:00,37.0,23.0,29.98,West,268,17.0,22.0,55,-99.99,,,-99.99,,2013-02-21 17:01:00,
2013-02-21 10:11:00,38.0,22.0,29.98,West,269,13.0,17.0,54,-99.99,,,-99.99,,2013-02-21 17:11:00,
2013-02-21 10:21:00,38.0,22.0,29.98,West,276,15.0,20.0,53,-99.99,,,-99.99,,2013-02-21 17:21:00,
2013-02-21 10:32:00,39.0,22.0,29.96,West,275,13.0,18.0,51,-99.99,,,-99.99,,2013-02-21 17:32:00,
2013-02-21 10:42:00,39.0,22.0,29.96,West,274,18.0,25.0,50,-99.99,,,-99.99,,2013-02-21 17:42:00,
2013-02-21 10:52:00,39.0,22.0,29.96,West,278,13.0,17.0,50,-99.99,,,-99.99,,2013-02-21 17:52:00,
2013-02-21 11:02:00,40.0,22.0,29.96,West,277,18.0,23.0,49,-99.99,,,-99.99,,2013-02-21 18:02:00,
2013-02-21 11:11:00,40.0,22.0,29.96,West,271,16.0,22.0,48,-99.99,,,-99.99,,2013-02-21 18:11:00,
2013-02-21 11:22:00,41.0,23.0,29.96,West,276,20.0,28.0,48,-99.99,,,-99.99,,2013-02-21 18:22:00,
2013-02-21 11:32:00,41.0,22.0,29.95,West,272,20.0,28.0,47,-99.99,,,-99.99,,2013-02-21 18:32:00,
2013-02-21 11:42:00,42.0,22.0,29.95,West,265,15.0,21.0,45,-99.99,,,-99.99,,2013-02-21 18:42:00,
2013-02-21 11:51:00,42.0,22.0,29.95,WNW,289,17.0,25.0,45,-99.99,,,-99.99,,2013-02-21 18:51:00,
2013-02-21 12:01:00,42.0,22.0,29.95,West,264,16.0,25.0,44,-99.99,,,-99.99,,2013-02-21 19:01:00,
2013-02-21 12:12:00,43.0,22.0,29.95,WSW,253,16.0,29.0,44,-99.99,,,-99.99,,2013-02-21 19:12:00,
2013-02-21 12:21:00,43.0,22.0,29.96,WSW,253,18.0,28.0,42,-99.99,,,-99.99,,2013-02-21 19:21:00,
2013-02-21 12:31:00,44.0,22.0,29.95,WSW,242,21.0,30.0,42,-99.99,,,-99.99,,2013-02-21 19:31:00,
2013-02-21 12:41:00,44.0,22.0,29.94,West,262,18.0,27.0,41,-99.99,,,-99.99,,2013-02-21 19:41:00,
2013-02-21 12:51:00,44.0,21.0,29.94,WSW,258,16.0,22.0,40,-99.99,,,-99.99,,2013-02-21 19:51:00,
2013-02-21 13:01:00,45.0,21.0,29.94,WSW,249,17.0,25.0,39,-99.99,,,-99.99,,2013-02-21 20:01:00,
2013-02-21 13:11:00,45.0,21.0,29.93,WSW,243,16.0,25.0,38,-99.99,,,-99.99,,2013-02-21 20:11:00,
2013-02-21 13:21:00,46.0,21.0,29.92,West,269,17.0,23.0,37,-99.99,,,-99.99,,2013-02-21 20:21:00,
2013-02-21 13:32:00,46.0,21.0,29.91,WNW,283,22.0,29.0,36,-99.99,,,-99.99,,2013-02-21 20:32:00,
2013-02-21 13:41:00,47.0,20.0,29.90,West,267,21.0,28.0,35,-99.99,,,-99.99,,2013-02-21 20:41:00,
2013-02-21 13:52:00,47.0,22.0,29.90,WSW,244,21.0,29.0,36,-99.99,,,-99.99,,2013-02-21 20:52:00,
2013-02-21 14:02:00,48.0,21.0,29.90,WSW,248,16.0,27.0,34,-99.99,,,-99.99,,2013-02-21 21:02:00,
2013-02-21 14:11:00,48.0,21.0,29.90,West,270,15.0,22.0,34,-99.99,,,-99.99,,2013-02-21 21:11:00,
2013-02-21 14:21:00,47.0,21.0,29.89,WSW,246,17.0,25.0,35,-99.99,,,-99.99,,2013-02-21 21:21:00,
2013-02-21 14:31:00,48.0,21.0,29.89,West,277,17.0,21.0,34,-99.99,,,-99.99,,2013-02-21 21:31:00,
2013-02-21 14:42:00,48.0,20.0,29.88,WSW,258,16.0,22.0,33,-99.99,,,-99.99,,2013-02-21 21:42:00,
2013-02-21 14:51:00,49.0,20.0,29.88,WSW,251,15.0,24.0,31,-99.99,,,-99.99,,2013-02-21 21:51:00,
2013-02-21 15:01:00,49.0,21.0,29.87,WSW,252,16.0,25.0,33,-99.99,,,-99.99,,2013-02-21 22:01:00,
2013-02-21 15:11:00,48.0,21.0,29.87,West,262,18.0,24.0,33,-99.99,,,-99.99,,2013-02-21 22:11:00,
2013-02-21 15:21:00,48.0,20.0,29.87,WSW,252,14.0,23.0,32,-99.99,,,-99.99,,2013-02-21 22:21:00,
2013-02-21 15:31:00,49.0,20.0,29.87,WSW,257,17.0,25.0,32,-99.99,,,-99.99,,2013-02-21 22:31:00,
2013-02-21 15:42:00,49.0,21.0,29.86,WNW,283,15.0,21.0,33,-99.99,,,-99.99,,2013-02-21 22:42:00,
2013-02-21 15:52:00,49.0,21.0,29.87,West,280,15.0,20.0,32,-99.99,,,-99.99,,2013-02-21 22:52:00,
2013-02-21 16:01:00,49.0,21.0,29.86,WNW,291,15.0,20.0,33,-99.99,,,-99.99,,2013-02-21 23:01:00,
2013-02-21 16:11:00,49.0,20.0,29.87,WSW,249,9.0,16.0,31,-99.99,,,-99.99,,2013-02-21 23:11:00,
2013-02-21 16:21:00,49.0,21.0,29.87,West,274,17.0,22.0,32,-99.99,,,-99.99,,2013-02-21 23:21:00,
2013-02-21 16:32:00,49.0,21.0,29.87,WNW,285,15.0,21.0,32,-99.99,,,-99.99,,2013-02-21 23:32:00,
2013-02-21 16:41:00,49.0,20.0,29.87,WSW,253,18.0,24.0,32,-99.99,,,-99.99,,2013-02-21 23:41:00,
2013-02-21 16:52:00,49.0,20.0,29.87,West,276,14.0,20.0,32,-99.99,,,-99.99,,2013-02-21 23:52:00,
2013-02-21 17:01:00,49.0,20.0,29.87,WNW,287,16.0,23.0,32,-99.99,,,-99.99,,2013-02-22 00:01:00,
2013-02-21 17:11:00,48.0,21.0,29.87,West,261,16.0,22.0,34,-99.99,,,-99.99,,2013-02-22 00:11:00,
2013-02-21 17:21:00,48.0,21.0,29.87,WNW,291,17.0,23.0,35,-99.99,,,-99.99,,2013-02-22 00:21:00,
2013-02-21 17:32:00,47.0,23.0,29.87,WNW,293,18.0,24.0,38,-99.99,,,-99.99,,2013-02-22 00:32:00,
2013-02-21 17:41:00,46.0,23.0,29.88,WNW,285,17.0,27.0,39,-99.99,,,-99.99,,2013-02-22 00:41:00,
2013-02-21 17:51:00,46.0,24.0,29.88,West,270,15.0,20.0,41,-99.99,,,-99.99,,2013-02-22 00:51:00,
2013-02-21 18:01:00,45.0,24.0,29.89,West,281,17.0,22.0,43,-99.99,,,-99.99,,2013-02-22 01:01:00,
2013-02-21 18:11:00,45.0,24.0,29.89,WNW,291,15.0,20.0,44,-99.99,,,-99.99,,2013-02-22 01:11:00,
2013-02-21 18:21:00,44.0,24.0,29.89,WNW,283,14.0,18.0,45,-99.99,,,-99.99,,2013-02-22 01:21:00,
2013-02-21 18:32:00,44.0,24.0,29.89,WNW,287,13.0,16.0,46,-99.99,,,-99.99,,2013-02-22 01:32:00,
2013-02-21 18:42:00,43.0,25.0,29.90,WNW,291,10.0,13.0,48,-99.99,,,-99.99,,2013-02-22 01:42:00,
2013-02-21 18:51:00,43.0,25.0,29.91,WNW,296,8.0,12.0,49,-99.99,,,-99.99,,2013-02-22 01:51:00,
2013-02-21 19:02:00,42.0,25.0,29.91,NW,313,9.0,10.0,49,-99.99,,,-99.99,,2013-02-22 02:02:00,
2013-02-21 19:11:00,42.0,24.0,29.91,West,274,12.0,15.0,49,-99.99,,,-99.99,,2013-02-22 02:11:00,
2013-02-21 19:21:00,42.0,23.0,29.92,WNW,292,15.0,20.0,47,-99.99,,,-99.99,,2013-02-22 02:21:00,
2013-02-21 19:31:00,42.0,24.0,29.92,WNW,303,13.0,17.0,48,-99.99,,,-99.99,,2013-02-22 02:31:00,
2013-02-21 19:42:00,41.0,23.0,29.92,NW,305,14.0,18.0,48,-99.99,,,-99.99,,2013-02-22 02:42:00,
2013-02-21 19:52:00,41.0,24.0,29.91,NW,309,13.0,16.0,50,-99.99,,,-99.99,,2013-02-22 02:52:00,
2013-02-21 20:01:00,40.0,23.0,29.91,NW,318,15.0,21.0,50,-99.99,,,-99.99,,2013-02-22 03:01:00,
2013-02-21 20:11:00,40.0,23.0,29.91,NW,310,13.0,16.0,51,-99.99,,,-99.99,,2013-02-22 03:11:00,
2013-02-21 20:21:00,40.0,24.0,29.92,NW,317,13.0,16.0,52,-99.99,,,-99.99,,2013-02-22 03:21:00,
2013-02-21 20:32:00,40.0,24.0,29.92,NW,318,14.0,16.0,52,-99.99,,,-99.99,,2013-02-22 03:32:00,
2013-02-21 20:42:00,39.0,24.0,29.92,NW,324,14.0,16.0,53,-99.99,,,-99.99,,2013-02-22 03:42:00,
2013-02-21 20:51:00,39.0,23.0,29.92,NW,320,12.0,15.0,53,-99.99,,,-99.99,,2013-02-22 03:51:00,
2013-02-21 21:01:00,39.0,23.0,29.93,NW,315,10.0,13.0,54,-99.99,,,-99.99,,2013-02-22 04:01:00,
2013-02-21 21:11:00,38.0,23.0,29.93,NW,310,6.0,7.0,54,-99.99,,,-99.99,,2013-02-22 04:11:00,
2013-02-21 21:21:00,38.0,23.0,29.93,WSW,254,2.0,5.0,55,-99.99,,,-99.99,,2013-02-22 04:21:00,
2013-02-21 21:32:00,38.0,23.0,29.93,SW,215,2.0,5.0,55,-99.99,,,-99.99,,2013-02-22 04:32:00,
2013-02-21 21:42:00,38.0,23.0,29.94,NW,308,5.0,7.0,54,-99.99,,,-99.99,,2013-02-22 04:42:00,
2013-02-21 21:51:00,38.0,23.0,29.94,NW,314,3.0,3.0,55,-99.99,,,-99.99,,2013-02-22 04:51:00,
2013-02-21 22:02:00,37.0,23.0,29.94,SE,124,5.0,6.0,58,-99.99,,,-99.99,,2013-02-22 05:02:00,
2013-02-21 22:12:00,35.0,23.0,29.94,SE,124,3.0,5.0,62,-99.99,,,-99.99,,2013-02-22 05:12:00,
2013-02-21 22:22:00,36.0,23.0,29.94,NNW,348,5.0,5.0,59,-99.99,,,-99.99,,2013-02-22 05:22:00,
2013-02-21 22:32:00,38.0,23.0,29.94,NW,322,8.0,12.0,55,-99.99,,,-99.99,,2013-02-22 05:32:00,
2013-02-21 22:42:00,38.0,23.0,29.94,NW,320,7.0,9.0,55,-99.99,,,-99.99,,2013-02-22 05:42:00,
2013-02-21 22:52:00,37.0,23.0,29.94,NW,323,7.0,8.0,56,-99.99,,,-99.99,,2013-02-22 05:52:00,
2013-02-21 23:01:00,37.0,24.0,29.94,NW,317,9.0,12.0,57,-99.99,,,-99.99,,2013-02-22 06:01:00,
2013-02-21 23:12:00,37.0,24.0,29.94,NW,318,10.0,13.0,58,-99.99,,,-99.99,,2013-02-22 06:12:00,
2013-02-21 23:22:00,37.0,24.0,29.94,NW,321,9.0,10.0,60,-99.99,,,-99.99,,2013-02-22 06:22:00,
2013-02-21 23:31:00,36.0,24.0,29.94,NW,318,7.0,9.0,61,-99.99,,,-99.99,,2013-02-22 06:31:00,
2013-02-21 23:42:00,36.0,24.0,29.94,NW,325,5.0,5.0,62,-99.99,,,-99.99,,2013-02-22 06:42:00,
2013-02-21 23:51:00,36.0,24.0,29.94,North,349,2.0,3.0,63,-99.99,,,-99.99,,2013-02-22 06:51:00,